createdAt,value
2023-04-02T00:01:23.982Z,23.95
2023-04-02T00:04:04.367Z,21.83
2023-04-02T00:06:40.961Z,20.45
2023-04-02T00:09:18.852Z,23.00
2023-04-02T00:11:51.698Z,21.90
2023-04-02T00:14:36.533Z,21.70
2023-04-02T00:17:07.549Z,33.28
2023-04-02T00:20:08.892Z,25.40
2023-04-02T00:22:45.507Z,24.10
2023-04-02T00:25:16.383Z,29.75
2023-04-02T00:27:47.214Z,29.55
2023-04-02T00:30:18.216Z,23.50
2023-04-02T00:32:49.837Z,21.17
2023-04-02T00:35:28.294Z,22.02
2023-04-02T00:37:59.139Z,20.38
2023-04-02T00:40:32.148Z,21.67
2023-04-02T00:43:04.471Z,19.77
2023-04-02T00:45:38.575Z,22.13
2023-04-02T00:48:33.625Z,20.88
2023-04-02T00:51:59.169Z,20.42
2023-04-02T00:54:34.132Z,19.83
2023-04-02T00:57:04.725Z,24.08
2023-04-02T00:59:38.591Z,21.48
2023-04-02T01:02:19.382Z,19.50
2023-04-02T01:05:18.641Z,26.35
2023-04-02T01:07:58.312Z,26.83
2023-04-02T01:11:04.439Z,22.00
2023-04-02T01:13:41.443Z,15.55
2023-04-02T01:16:26.094Z,17.75
2023-04-02T01:19:46.673Z,20.25
2023-04-02T01:22:24.260Z,21.80
2023-04-02T01:24:59.160Z,24.60
2023-04-02T01:27:53.909Z,35.35
2023-04-02T01:30:30.435Z,24.60
2023-04-02T01:33:04.067Z,24.05
2023-04-02T01:35:38.977Z,34.20
2023-04-02T01:38:23.480Z,24.83
2023-04-02T01:41:22.938Z,25.48
2023-04-02T01:44:13.865Z,27.20
2023-04-02T01:46:45.701Z,24.55
2023-04-02T01:49:22.108Z,28.27
2023-04-02T01:51:57.733Z,28.92
2023-04-02T01:54:31.773Z,27.40
2023-04-02T01:57:02.666Z,31.77
2023-04-02T01:59:34.246Z,26.25
2023-04-02T02:02:14.625Z,28.55
2023-04-02T02:04:46.872Z,33.63
2023-04-02T02:07:21.542Z,38.28
2023-04-02T02:09:58.347Z,28.38
2023-04-02T02:12:29.393Z,27.20
2023-04-02T02:15:03.411Z,27.38
2023-04-02T02:17:35.456Z,31.73
2023-04-02T02:20:12.369Z,27.35
2023-04-02T02:22:50.502Z,43.13
2023-04-02T02:25:27.314Z,27.42
2023-04-02T02:28:29.685Z,43.88
2023-04-02T02:31:13.873Z,24.55
2023-04-02T02:33:48.716Z,23.25
2023-04-02T02:36:50.138Z,24.02
2023-04-02T02:39:37.066Z,27.92
2023-04-02T02:42:25.980Z,29.17
2023-04-02T02:44:58.441Z,21.88
2023-04-02T02:47:36.216Z,22.77
2023-04-02T02:50:11.328Z,28.90
2023-04-02T02:52:48.300Z,29.85
2023-04-02T02:55:45.146Z,28.88
2023-04-02T02:58:31.109Z,29.08
2023-04-02T03:01:24.905Z,30.15
2023-04-02T03:03:57.853Z,30.70
2023-04-02T03:06:29.502Z,30.00
2023-04-02T03:09:38.613Z,32.05
2023-04-02T03:12:23.567Z,25.38
2023-04-02T03:15:16.472Z,30.55
2023-04-02T03:17:55.437Z,32.47
2023-04-02T03:20:50.497Z,29.55
2023-04-02T03:23:31.180Z,29.67
2023-04-02T03:26:54.042Z,30.23
2023-04-02T03:29:28.691Z,26.23
2023-04-02T03:32:09.624Z,27.98
2023-04-02T03:34:54.243Z,26.15
2023-04-02T03:37:33.779Z,29.05
2023-04-02T03:40:17.304Z,29.17
2023-04-02T03:42:50.946Z,30.65
2023-04-02T03:45:25.544Z,26.30
2023-04-02T03:48:12.740Z,28.20
2023-04-02T03:50:50.274Z,26.58
2023-04-02T03:53:26.149Z,27.98
2023-04-02T03:55:57.879Z,27.40
2023-04-02T03:58:34.317Z,27.42
2023-04-02T04:01:35.570Z,23.58
2023-04-02T04:04:15.507Z,29.30
2023-04-02T04:06:48.053Z,34.67
2023-04-02T04:09:37.314Z,24.95
2023-04-02T04:12:23.920Z,26.70
2023-04-02T04:15:10.677Z,32.88
2023-04-02T04:17:52.305Z,27.55
2023-04-02T04:20:34.816Z,28.33
2023-04-02T04:23:30.904Z,26.45
2023-04-02T04:26:12.594Z,28.63
2023-04-02T04:28:48.965Z,29.90
2023-04-02T04:31:39.973Z,29.17
2023-04-02T04:34:43.297Z,28.25
2023-04-02T04:37:34.430Z,23.45
2023-04-02T04:40:26.030Z,23.98
2023-04-02T04:43:07.872Z,25.38
2023-04-02T04:46:02.489Z,26.48
2023-04-02T04:48:40.338Z,30.63
2023-04-02T04:51:22.081Z,33.33
2023-04-02T04:53:56.054Z,28.90
2023-04-02T04:56:31.766Z,23.30
2023-04-02T04:59:36.352Z,23.13
2023-04-02T05:02:20.791Z,23.95
2023-04-02T05:04:53.687Z,35.90
2023-04-02T05:07:39.619Z,27.55
2023-04-02T05:10:32.256Z,24.33
2023-04-02T05:13:09.295Z,27.98
2023-04-02T05:16:01.192Z,27.15
2023-04-02T05:18:54.110Z,25.20
2023-04-02T05:21:36.653Z,29.15
2023-04-02T05:24:29.483Z,29.45
2023-04-02T05:27:06.806Z,30.63
2023-04-02T05:29:40.868Z,29.00
2023-04-02T05:32:18.791Z,31.65
2023-04-02T05:34:52.577Z,32.33
2023-04-02T05:37:26.106Z,24.15
2023-04-02T05:40:07.628Z,27.92
2023-04-02T05:42:38.979Z,28.92
2023-04-02T05:45:33.816Z,27.30
2023-04-02T05:48:20.291Z,28.75
2023-04-02T05:50:55.915Z,33.78
2023-04-02T05:53:42.661Z,31.60
2023-04-02T05:56:45.988Z,26.10
2023-04-02T05:59:36.097Z,22.38
2023-04-02T06:02:09.113Z,31.98
2023-04-02T06:04:58.156Z,26.73
2023-04-02T06:07:47.955Z,25.42
2023-04-02T06:10:26.735Z,23.40
2023-04-02T06:13:05.009Z,48.83
2023-04-02T06:15:42.740Z,27.30
2023-04-02T06:18:21.748Z,35.90
2023-04-02T06:20:55.119Z,29.02
2023-04-02T06:23:45.614Z,32.88
2023-04-02T06:26:41.341Z,34.95
2023-04-02T06:29:40.826Z,32.45
2023-04-02T06:32:20.975Z,29.83
2023-04-02T06:34:52.165Z,26.15
2023-04-02T06:37:37.207Z,28.55
2023-04-02T06:40:41.088Z,26.63
2023-04-02T06:43:47.066Z,33.53
2023-04-02T06:47:26.373Z,29.73
2023-04-02T06:50:03.017Z,31.98
2023-04-02T06:52:46.371Z,33.65
2023-04-02T06:55:35.157Z,31.48
2023-04-02T06:58:11.101Z,24.23
2023-04-02T07:00:47.013Z,28.98
2023-04-02T07:03:29.814Z,25.15
2023-04-02T07:06:04.547Z,20.60
2023-04-02T07:08:37.500Z,29.13
2023-04-02T07:11:08.411Z,31.55
2023-04-02T07:13:38.850Z,25.77
2023-04-02T07:16:16.770Z,21.08
2023-04-02T07:18:48.385Z,27.85
2023-04-02T07:21:19.641Z,19.05
2023-04-02T07:23:53.123Z,21.30
2023-04-02T07:26:28.204Z,38.25
2023-04-02T07:28:59.052Z,38.92
2023-04-02T07:31:30.684Z,25.80
2023-04-02T07:34:02.517Z,25.23
2023-04-02T07:36:35.793Z,17.67
2023-04-02T07:39:07.446Z,17.40
2023-04-02T07:41:53.353Z,14.38
2023-04-02T07:44:24.059Z,15.25
2023-04-02T07:46:54.965Z,13.20
2023-04-02T07:49:26.221Z,15.45
2023-04-02T07:51:57.706Z,13.15
2023-04-02T07:54:29.241Z,12.50
2023-04-02T07:57:00.067Z,15.70
2023-04-02T07:59:30.769Z,23.63
2023-04-02T08:02:01.669Z,14.98
2023-04-02T08:04:32.309Z,17.88
2023-04-02T08:07:03.165Z,14.15
2023-04-02T08:09:34.164Z,13.25
2023-04-02T08:12:05.300Z,12.23
2023-04-02T08:14:36.016Z,11.27
2023-04-02T08:17:06.937Z,13.23
2023-04-02T08:19:48.161Z,10.80
2023-04-02T08:22:25.325Z,14.05
2023-04-02T08:24:55.980Z,11.07
2023-04-02T08:27:27.374Z,14.13
2023-04-02T08:29:58.320Z,16.65
2023-04-02T08:32:30.082Z,11.00
2023-04-02T08:35:00.569Z,13.65
2023-04-02T08:37:31.473Z,13.57
2023-04-02T08:40:04.782Z,14.05
2023-04-02T08:42:41.966Z,12.05
2023-04-02T08:45:39.934Z,14.30
2023-04-02T08:48:14.111Z,12.73
2023-04-02T08:50:45.433Z,13.40
2023-04-02T08:53:22.694Z,13.88
2023-04-02T08:56:09.483Z,10.50
2023-04-02T08:58:54.870Z,12.50
2023-04-02T09:01:28.279Z,17.58
2023-04-02T09:04:00.669Z,16.38
2023-04-02T09:06:32.530Z,15.60
2023-04-02T09:09:13.788Z,17.92
2023-04-02T09:11:48.661Z,23.08
2023-04-02T09:14:35.835Z,18.90
2023-04-02T09:17:17.010Z,16.00
2023-04-02T09:19:55.939Z,16.25
2023-04-02T09:22:28.826Z,20.63
2023-04-02T09:25:01.959Z,14.48
2023-04-02T09:27:35.155Z,17.40
2023-04-02T09:30:34.856Z,17.17
2023-04-02T09:33:10.113Z,13.98
2023-04-02T09:35:52.809Z,16.00
2023-04-02T09:38:32.477Z,16.88
2023-04-02T09:41:20.206Z,14.75
2023-04-02T09:43:51.496Z,17.05
2023-04-02T09:46:27.018Z,14.25
2023-04-02T09:49:04.634Z,21.63
2023-04-02T09:51:37.497Z,13.65
2023-04-02T09:54:17.315Z,16.27
2023-04-02T09:57:06.767Z,15.77
2023-04-02T09:59:38.417Z,18.52
2023-04-02T10:02:30.625Z,21.15
2023-04-02T10:05:06.843Z,22.17
2023-04-02T10:07:47.610Z,18.65
2023-04-02T10:10:21.031Z,19.63
2023-04-02T10:13:07.717Z,16.05
2023-04-02T10:16:05.000Z,16.15
2023-04-02T10:18:53.689Z,16.17
2023-04-02T10:21:38.986Z,19.27
2023-04-02T10:24:17.610Z,20.20
2023-04-02T10:27:00.013Z,16.75
2023-04-02T10:30:06.226Z,19.83
2023-04-02T10:33:01.750Z,21.80
2023-04-02T10:35:49.564Z,17.95
2023-04-02T10:38:31.833Z,17.95
2023-04-02T10:41:24.693Z,18.60
2023-04-02T10:44:16.706Z,14.90
2023-04-02T10:47:11.308Z,17.20
2023-04-02T10:50:20.643Z,19.80
2023-04-02T10:52:59.673Z,19.02
2023-04-02T10:55:33.950Z,18.63
2023-04-02T10:58:09.313Z,27.77
2023-04-02T11:00:42.011Z,22.25
2023-04-02T11:03:20.429Z,19.02
2023-04-02T11:05:57.127Z,22.55
2023-04-02T11:08:41.143Z,18.13
2023-04-02T11:11:22.410Z,27.02
2023-04-02T11:14:05.024Z,21.42
2023-04-02T11:16:37.293Z,24.25
2023-04-02T11:19:17.146Z,28.23
2023-04-02T11:22:27.261Z,23.38
2023-04-02T11:24:59.009Z,20.80
2023-04-02T11:27:31.804Z,24.38
2023-04-02T11:30:21.568Z,21.58
2023-04-02T11:32:52.550Z,18.50
2023-04-02T11:35:37.043Z,18.05
2023-04-02T11:38:12.300Z,20.17
2023-04-02T11:40:45.899Z,21.40
2023-04-02T11:43:35.017Z,21.85
2023-04-02T11:46:17.836Z,25.55
2023-04-02T11:48:48.304Z,21.10
2023-04-02T11:51:24.890Z,25.45
2023-04-02T11:53:59.336Z,27.92
2023-04-02T11:56:47.349Z,27.00
2023-04-02T11:59:50.342Z,24.17
2023-04-02T12:02:50.831Z,25.33
2023-04-02T12:05:28.984Z,34.00
2023-04-02T12:07:59.365Z,25.83
2023-04-02T12:10:33.906Z,25.42
2023-04-02T12:13:04.321Z,27.92
2023-04-02T12:15:40.588Z,25.65
2023-04-02T12:18:24.543Z,27.25
2023-04-02T12:20:57.689Z,31.35
2023-04-02T12:23:32.271Z,26.60
2023-04-02T12:26:09.897Z,21.80
2023-04-02T12:28:43.240Z,26.65
2023-04-02T12:31:17.561Z,21.95
2023-04-02T12:33:48.224Z,25.05
2023-04-02T12:36:22.496Z,36.88
2023-04-02T12:38:58.444Z,31.83
2023-04-02T12:41:32.887Z,23.48
2023-04-02T12:44:07.649Z,22.77
2023-04-02T12:46:39.676Z,25.98
2023-04-02T12:49:27.005Z,33.50
2023-04-02T12:51:58.383Z,22.00
2023-04-02T12:54:37.694Z,23.65
2023-04-02T12:57:32.469Z,21.55
2023-04-02T13:00:22.009Z,22.20
2023-04-02T13:02:55.573Z,17.98
2023-04-02T13:05:43.666Z,20.63
2023-04-02T13:08:31.627Z,23.73
2023-04-02T13:11:04.457Z,18.85
2023-04-02T13:13:39.961Z,18.08
2023-04-02T13:16:22.462Z,17.05
2023-04-02T13:18:53.843Z,15.05
2023-04-02T13:21:28.755Z,16.73
2023-04-02T13:23:59.927Z,19.48
2023-04-02T13:26:31.564Z,19.60
2023-04-02T13:29:10.751Z,16.40
2023-04-02T13:31:41.422Z,17.33
2023-04-02T13:34:12.368Z,16.83
2023-04-02T13:36:42.634Z,16.35
2023-04-02T13:39:14.401Z,23.73
2023-04-02T13:41:59.771Z,29.33
2023-04-02T13:44:35.893Z,29.48
2023-04-02T13:47:06.512Z,35.25
2023-04-02T13:49:45.039Z,27.65
2023-04-02T13:52:18.438Z,33.38
2023-04-02T13:54:51.791Z,35.22
2023-04-02T13:57:22.480Z,30.35
2023-04-02T13:59:53.183Z,30.65
2023-04-02T14:02:26.194Z,29.65
2023-04-02T14:05:30.134Z,27.35
2023-04-02T14:08:13.175Z,25.00
2023-04-02T14:10:53.139Z,27.95
2023-04-02T14:13:38.721Z,25.05
2023-04-02T14:16:20.883Z,26.98
2023-04-02T14:19:07.184Z,26.00
2023-04-02T14:22:02.190Z,31.70
2023-04-02T14:25:12.953Z,26.33
2023-04-02T14:28:24.520Z,22.20
2023-04-02T14:31:00.430Z,24.42
2023-04-02T14:34:09.808Z,19.90
2023-04-02T14:36:58.564Z,23.60
2023-04-02T14:39:38.729Z,23.95
2023-04-02T14:42:19.253Z,32.63
2023-04-02T14:45:08.274Z,24.23
2023-04-02T14:48:02.260Z,17.52
2023-04-02T14:50:39.926Z,14.10
2023-04-02T14:53:40.398Z,14.23
2023-04-02T14:56:13.405Z,14.18
2023-04-02T14:58:52.812Z,14.25
2023-04-02T15:01:29.129Z,9.88
2023-04-02T15:04:14.413Z,15.30
2023-04-02T15:06:49.661Z,13.55
2023-04-02T15:09:30.315Z,12.60
2023-04-02T15:12:26.137Z,12.55
2023-04-02T15:15:15.354Z,11.82
2023-04-02T15:17:46.128Z,15.55
2023-04-02T15:20:18.580Z,16.00
2023-04-02T15:22:59.017Z,11.60
2023-04-02T15:25:50.767Z,12.82
2023-04-02T15:28:24.104Z,13.68
2023-04-02T15:31:01.239Z,15.60
2023-04-02T15:33:55.889Z,12.25
2023-04-02T15:36:36.357Z,14.68
2023-04-02T15:39:24.867Z,14.10
2023-04-02T15:42:20.364Z,11.82
2023-04-02T15:45:09.720Z,13.48
2023-04-02T15:47:49.404Z,19.00
2023-04-02T15:50:39.465Z,16.40
2023-04-02T15:53:23.184Z,16.98
2023-04-02T15:56:16.176Z,15.27
2023-04-02T15:58:52.695Z,20.08
2023-04-02T16:01:32.492Z,19.38
2023-04-02T16:04:22.170Z,19.25
2023-04-02T16:07:49.149Z,16.13
2023-04-02T16:10:40.183Z,17.23
2023-04-02T16:13:30.565Z,13.55
2023-04-02T16:16:06.474Z,18.40
2023-04-02T16:19:04.661Z,15.88
2023-04-02T16:21:40.314Z,17.08
2023-04-02T16:24:14.484Z,17.30
2023-04-02T16:27:01.557Z,14.20
2023-04-02T16:29:47.110Z,15.35
2023-04-02T16:32:24.320Z,17.65
2023-04-02T16:35:01.961Z,15.15
2023-04-02T16:38:21.419Z,15.05
2023-04-02T16:41:11.014Z,15.07
2023-04-02T16:44:07.093Z,14.10
2023-04-02T16:46:58.903Z,15.43
2023-04-02T16:49:53.912Z,17.58
2023-04-02T16:52:31.649Z,19.55
2023-04-02T16:55:14.401Z,22.98
2023-04-02T16:58:09.020Z,22.08
2023-04-02T17:00:47.646Z,18.55
2023-04-02T17:03:42.758Z,18.25
2023-04-02T17:06:37.245Z,22.30
2023-04-02T17:09:27.157Z,20.83
2023-04-02T17:12:12.954Z,23.88
2023-04-02T17:15:00.830Z,17.70
2023-04-02T17:17:31.716Z,19.30
2023-04-02T17:20:11.429Z,17.40
2023-04-02T17:22:41.893Z,20.10
2023-04-02T17:25:20.931Z,18.10
2023-04-02T17:27:55.656Z,21.08
2023-04-02T17:30:48.142Z,17.05
2023-04-02T17:33:20.370Z,21.17
2023-04-02T17:35:56.413Z,18.73
2023-04-02T17:38:37.537Z,18.60
2023-04-02T17:41:19.681Z,17.35
2023-04-02T17:44:12.716Z,17.65
2023-04-02T17:46:46.643Z,15.65
2023-04-02T17:49:38.379Z,24.77
2023-04-02T17:52:38.061Z,15.55
2023-04-02T17:55:11.259Z,18.88
2023-04-02T17:57:51.224Z,13.15
2023-04-02T18:00:27.077Z,17.15
2023-04-02T18:03:02.676Z,12.93
2023-04-02T18:05:52.084Z,14.20
2023-04-02T18:08:26.483Z,12.85
2023-04-02T18:11:35.761Z,16.08
2023-04-02T18:14:19.940Z,17.13
2023-04-02T18:17:08.958Z,17.58
2023-04-02T18:20:21.677Z,16.10
2023-04-02T18:23:13.378Z,16.67
2023-04-02T18:25:57.591Z,16.83
2023-04-02T18:29:03.363Z,16.85
2023-04-02T18:32:05.399Z,17.75
2023-04-02T18:34:45.956Z,20.25
2023-04-02T18:37:34.693Z,22.33
2023-04-02T18:40:22.658Z,22.05
2023-04-02T18:43:24.177Z,20.95
2023-04-02T18:46:15.848Z,25.52
2023-04-02T18:49:20.986Z,23.38
2023-04-02T18:51:56.102Z,23.77
2023-04-02T18:54:34.994Z,22.05
2023-04-02T18:57:19.298Z,24.08
2023-04-02T19:00:05.528Z,22.40
2023-04-02T19:03:08.162Z,22.23
2023-04-02T19:05:46.262Z,25.75
2023-04-02T19:08:24.733Z,22.73
2023-04-02T19:10:59.532Z,27.65
2023-04-02T19:13:30.076Z,30.30
2023-04-02T19:16:18.909Z,29.70
2023-04-02T19:19:01.245Z,27.25
2023-04-02T19:22:01.328Z,31.33
2023-04-02T19:24:37.836Z,29.83
2023-04-02T19:27:39.321Z,28.48
2023-04-02T19:30:49.955Z,32.25
2023-04-02T19:33:42.484Z,27.25
2023-04-02T19:36:19.973Z,25.08
2023-04-02T19:39:05.179Z,28.17
2023-04-02T19:41:49.063Z,21.77
2023-04-02T19:44:19.750Z,24.88
2023-04-02T19:46:52.301Z,25.20
2023-04-02T19:49:34.925Z,24.35
2023-04-02T19:52:06.205Z,27.80
2023-04-02T19:54:38.212Z,28.20
2023-04-02T19:57:08.641Z,29.92
2023-04-02T19:59:39.000Z,25.83
2023-04-02T20:02:11.395Z,33.20
2023-04-02T20:04:43.420Z,30.27
2023-04-02T20:07:13.873Z,35.85
2023-04-02T20:09:44.286Z,29.98
2023-04-02T20:12:15.181Z,30.77
2023-04-02T20:14:45.829Z,29.65
2023-04-02T20:17:16.956Z,26.30
2023-04-02T20:19:47.343Z,25.65
2023-04-02T20:22:20.098Z,25.73
2023-04-02T20:24:51.254Z,26.75
2023-04-02T20:27:21.859Z,24.30
2023-04-02T20:29:52.790Z,22.83
2023-04-02T20:32:54.361Z,28.33
2023-04-02T20:35:26.518Z,21.48
2023-04-02T20:37:57.454Z,27.50
2023-04-02T20:40:28.056Z,19.33
2023-04-02T20:43:07.130Z,20.45
2023-04-02T20:45:38.299Z,21.38
2023-04-02T20:48:08.988Z,22.05
2023-04-02T20:50:39.326Z,23.10
2023-04-02T20:53:10.199Z,26.63
2023-04-02T20:55:40.646Z,20.17
2023-04-02T20:58:10.910Z,19.15
2023-04-02T21:00:43.469Z,21.60
2023-04-02T21:03:14.865Z,18.52
2023-04-02T21:05:49.206Z,24.73
2023-04-02T21:08:22.128Z,23.52
2023-04-02T21:10:53.584Z,21.40
2023-04-02T21:13:24.379Z,24.65
2023-04-02T21:15:55.080Z,19.85
2023-04-02T21:18:25.476Z,26.98
2023-04-02T21:21:05.662Z,18.13
2023-04-02T21:23:36.697Z,24.83
2023-04-02T21:26:11.964Z,23.67
2023-04-02T21:28:43.348Z,22.92
2023-04-02T21:31:27.892Z,21.70
2023-04-02T21:33:59.881Z,22.75
2023-04-02T21:36:36.356Z,22.15
2023-04-02T21:39:09.036Z,24.42
2023-04-02T21:41:44.285Z,27.13
2023-04-02T21:44:20.326Z,23.88
2023-04-02T21:46:53.087Z,25.33
2023-04-02T21:49:27.252Z,27.52
2023-04-02T21:51:58.279Z,34.25
2023-04-02T21:54:28.900Z,26.30
2023-04-02T21:57:01.896Z,21.83
2023-04-02T21:59:32.477Z,32.63
2023-04-02T22:02:03.348Z,29.67
2023-04-02T22:04:34.227Z,34.58
2023-04-02T22:07:04.566Z,27.10
2023-04-02T22:09:43.419Z,33.20
2023-04-02T22:12:14.687Z,28.92
2023-04-02T22:14:44.812Z,32.70
2023-04-02T22:17:15.463Z,30.05
2023-04-02T22:19:46.602Z,35.40
2023-04-02T22:22:17.405Z,30.77
2023-04-02T22:24:48.017Z,33.25
2023-04-02T22:27:18.464Z,38.10
2023-04-02T22:29:49.450Z,32.42
2023-04-02T22:32:20.410Z,36.80
2023-04-02T22:34:50.694Z,32.20
2023-04-02T22:37:21.032Z,36.45
2023-04-02T22:39:52.043Z,30.08
2023-04-02T22:42:22.835Z,33.00
2023-04-02T22:44:56.378Z,29.58
2023-04-02T22:47:27.112Z,21.58
2023-04-02T22:49:57.951Z,24.77
2023-04-02T22:52:28.281Z,21.40
2023-04-02T22:54:58.972Z,27.88
2023-04-02T22:57:29.335Z,30.13
2023-04-02T23:00:00.004Z,25.42
2023-04-02T23:02:30.290Z,31.40
2023-04-02T23:05:01.028Z,39.05
2023-04-02T23:07:32.179Z,26.50
2023-04-02T23:10:04.610Z,29.33
2023-04-02T23:12:41.304Z,30.80
2023-04-02T23:15:12.658Z,30.50
2023-04-02T23:17:43.325Z,25.60
2023-04-02T23:20:14.979Z,29.35
2023-04-02T23:22:45.114Z,28.48
2023-04-02T23:25:19.412Z,23.55
2023-04-02T23:27:51.107Z,24.70
2023-04-02T23:30:22.571Z,25.67
2023-04-02T23:32:56.339Z,24.67
2023-04-02T23:35:27.304Z,24.95
2023-04-02T23:37:57.625Z,24.88
2023-04-02T23:40:28.573Z,28.98
2023-04-02T23:42:59.243Z,23.15
2023-04-02T23:45:33.068Z,21.98
2023-04-02T23:48:04.063Z,27.88
2023-04-02T23:50:34.917Z,26.58
2023-04-02T23:53:05.608Z,27.35
2023-04-02T23:55:37.130Z,26.83
2023-04-02T23:58:07.623Z,23.55
